sensor_id;sensor_type;location;lat;lon;timestamp;P1;durP1;ratioP1;P2;durP2;ratioP2
71395;SDS011;59888;55.814;37.132;2023-08-31T00:01:12;8.63;;;4.28;;
71395;SDS011;59888;55.814;37.132;2023-08-31T00:03:39;10.50;;;4.40;;
71395;SDS011;59888;55.814;37.132;2023-08-31T00:06:05;8.23;;;4.20;;
71395;SDS011;59888;55.814;37.132;2023-08-31T00:08:34;10.07;;;4.93;;
71395;SDS011;59888;55.814;37.132;2023-08-31T00:11:00;9.38;;;4.80;;
71395;SDS011;59888;55.814;37.132;2023-08-31T00:13:27;9.27;;;4.72;;
71395;SDS011;59888;55.814;37.132;2023-08-31T00:15:54;11.35;;;4.53;;
71395;SDS011;59888;55.814;37.132;2023-08-31T00:18:25;9.45;;;4.47;;
71395;SDS011;59888;55.814;37.132;2023-08-31T00:20:51;9.57;;;4.72;;
71395;SDS011;59888;55.814;37.132;2023-08-31T00:23:18;9.02;;;4.80;;
71395;SDS011;59888;55.814;37.132;2023-08-31T00:25:47;8.77;;;4.90;;
71395;SDS011;59888;55.814;37.132;2023-08-31T00:28:14;9.02;;;4.32;;
71395;SDS011;59888;55.814;37.132;2023-08-31T00:30:42;9.38;;;4.72;;
71395;SDS011;59888;55.814;37.132;2023-08-31T00:33:10;9.70;;;4.22;;
71395;SDS011;59888;55.814;37.132;2023-08-31T00:35:37;7.95;;;4.57;;
71395;SDS011;59888;55.814;37.132;2023-08-31T00:38:03;10.48;;;4.90;;
71395;SDS011;59888;55.814;37.132;2023-08-31T00:40:30;9.63;;;4.55;;
71395;SDS011;59888;55.814;37.132;2023-08-31T00:42:57;9.18;;;4.40;;
71395;SDS011;59888;55.814;37.132;2023-08-31T00:45:23;9.57;;;4.40;;
71395;SDS011;59888;55.814;37.132;2023-08-31T00:47:49;9.77;;;4.30;;
71395;SDS011;59888;55.814;37.132;2023-08-31T00:50:15;12.60;;;4.72;;
71395;SDS011;59888;55.814;37.132;2023-08-31T00:52:42;8.70;;;4.60;;
71395;SDS011;59888;55.814;37.132;2023-08-31T00:55:13;9.02;;;4.32;;
71395;SDS011;59888;55.814;37.132;2023-08-31T00:57:39;9.07;;;4.68;;
71395;SDS011;59888;55.814;37.132;2023-08-31T01:00:06;7.85;;;4.18;;
71395;SDS011;59888;55.814;37.132;2023-08-31T01:02:42;7.97;;;4.50;;
71395;SDS011;59888;55.814;37.132;2023-08-31T01:06:10;9.18;;;4.68;;
71395;SDS011;59888;55.814;37.132;2023-08-31T01:08:43;7.53;;;4.38;;
71395;SDS011;59888;55.814;37.132;2023-08-31T01:11:29;8.00;;;4.82;;
71395;SDS011;59888;55.814;37.132;2023-08-31T01:14:02;6.95;;;4.18;;
71395;SDS011;59888;55.814;37.132;2023-08-31T01:16:42;8.07;;;4.43;;
71395;SDS011;59888;55.814;37.132;2023-08-31T01:19:16;10.55;;;4.53;;
71395;SDS011;59888;55.814;37.132;2023-08-31T01:21:43;8.15;;;4.50;;
71395;SDS011;59888;55.814;37.132;2023-08-31T01:24:11;10.35;;;4.47;;
71395;SDS011;59888;55.814;37.132;2023-08-31T01:26:38;8.00;;;4.90;;
71395;SDS011;59888;55.814;37.132;2023-08-31T01:29:07;8.55;;;4.50;;
71395;SDS011;59888;55.814;37.132;2023-08-31T01:31:41;9.02;;;4.05;;
71395;SDS011;59888;55.814;37.132;2023-08-31T01:34:08;8.50;;;4.30;;
71395;SDS011;59888;55.814;37.132;2023-08-31T01:36:38;10.70;;;4.38;;
71395;SDS011;59888;55.814;37.132;2023-08-31T01:41:48;9.65;;;4.35;;
71395;SDS011;59888;55.814;37.132;2023-08-31T01:44:22;11.52;;;4.97;;
71395;SDS011;59888;55.814;37.132;2023-08-31T01:46:52;11.57;;;4.15;;
71395;SDS011;59888;55.814;37.132;2023-08-31T01:49:23;9.25;;;4.40;;
71395;SDS011;59888;55.814;37.132;2023-08-31T01:51:49;9.95;;;4.20;;
71395;SDS011;59888;55.814;37.132;2023-08-31T01:54:16;9.93;;;4.53;;
71395;SDS011;59888;55.814;37.132;2023-08-31T01:56:42;8.73;;;4.28;;
71395;SDS011;59888;55.814;37.132;2023-08-31T01:59:08;6.82;;;4.55;;
71395;SDS011;59888;55.814;37.132;2023-08-31T02:01:34;9.73;;;4.95;;
71395;SDS011;59888;55.814;37.132;2023-08-31T02:04:02;10.10;;;5.10;;
71395;SDS011;59888;55.814;37.132;2023-08-31T02:06:31;9.57;;;4.93;;
71395;SDS011;59888;55.814;37.132;2023-08-31T02:08:58;9.75;;;4.75;;
71395;SDS011;59888;55.814;37.132;2023-08-31T02:11:24;9.25;;;4.43;;
71395;SDS011;59888;55.814;37.132;2023-08-31T02:13:54;7.38;;;4.60;;
71395;SDS011;59888;55.814;37.132;2023-08-31T02:16:20;8.85;;;4.50;;
71395;SDS011;59888;55.814;37.132;2023-08-31T02:18:46;7.97;;;4.55;;
71395;SDS011;59888;55.814;37.132;2023-08-31T02:21:12;9.90;;;5.35;;
71395;SDS011;59888;55.814;37.132;2023-08-31T02:23:41;8.32;;;4.85;;
71395;SDS011;59888;55.814;37.132;2023-08-31T02:26:07;9.27;;;4.95;;
71395;SDS011;59888;55.814;37.132;2023-08-31T02:28:33;6.72;;;4.75;;
71395;SDS011;59888;55.814;37.132;2023-08-31T02:31:02;9.07;;;5.30;;
71395;SDS011;59888;55.814;37.132;2023-08-31T02:33:31;9.93;;;5.47;;
71395;SDS011;59888;55.814;37.132;2023-08-31T02:35:57;9.98;;;4.80;;
71395;SDS011;59888;55.814;37.132;2023-08-31T02:38:23;8.25;;;4.95;;
71395;SDS011;59888;55.814;37.132;2023-08-31T02:40:49;9.35;;;4.35;;
71395;SDS011;59888;55.814;37.132;2023-08-31T02:43:15;11.32;;;5.43;;
71395;SDS011;59888;55.814;37.132;2023-08-31T02:45:41;11.20;;;6.45;;
71395;SDS011;59888;55.814;37.132;2023-08-31T02:48:07;9.65;;;5.30;;
71395;SDS011;59888;55.814;37.132;2023-08-31T02:50:34;12.63;;;5.55;;
71395;SDS011;59888;55.814;37.132;2023-08-31T02:53:00;10.38;;;5.50;;
71395;SDS011;59888;55.814;37.132;2023-08-31T02:55:27;10.35;;;5.43;;
71395;SDS011;59888;55.814;37.132;2023-08-31T02:57:53;12.77;;;5.32;;
71395;SDS011;59888;55.814;37.132;2023-08-31T03:00:20;10.02;;;5.50;;
71395;SDS011;59888;55.814;37.132;2023-08-31T03:02:49;11.15;;;6.47;;
71395;SDS011;59888;55.814;37.132;2023-08-31T03:05:18;11.18;;;6.18;;
71395;SDS011;59888;55.814;37.132;2023-08-31T03:07:47;14.57;;;7.03;;
71395;SDS011;59888;55.814;37.132;2023-08-31T03:10:13;15.32;;;6.25;;
71395;SDS011;59888;55.814;37.132;2023-08-31T03:12:39;10.77;;;5.95;;
71395;SDS011;59888;55.814;37.132;2023-08-31T03:15:06;10.40;;;6.13;;
71395;SDS011;59888;55.814;37.132;2023-08-31T03:17:33;10.13;;;5.78;;
71395;SDS011;59888;55.814;37.132;2023-08-31T03:19:59;15.18;;;7.22;;
71395;SDS011;59888;55.814;37.132;2023-08-31T03:22:29;14.90;;;7.32;;
71395;SDS011;59888;55.814;37.132;2023-08-31T03:24:55;15.43;;;7.78;;
71395;SDS011;59888;55.814;37.132;2023-08-31T03:27:21;14.13;;;7.72;;
71395;SDS011;59888;55.814;37.132;2023-08-31T03:29:47;14.60;;;6.95;;
71395;SDS011;59888;55.814;37.132;2023-08-31T03:32:13;12.05;;;7.28;;
71395;SDS011;59888;55.814;37.132;2023-08-31T03:34:39;18.02;;;8.80;;
71395;SDS011;59888;55.814;37.132;2023-08-31T03:37:05;18.52;;;9.23;;
71395;SDS011;59888;55.814;37.132;2023-08-31T03:39:32;17.85;;;8.65;;
71395;SDS011;59888;55.814;37.132;2023-08-31T03:41:58;18.27;;;7.78;;
71395;SDS011;59888;55.814;37.132;2023-08-31T03:44:24;17.60;;;8.90;;
71395;SDS011;59888;55.814;37.132;2023-08-31T03:46:51;13.63;;;7.38;;
71395;SDS011;59888;55.814;37.132;2023-08-31T03:49:18;17.65;;;8.40;;
71395;SDS011;59888;55.814;37.132;2023-08-31T03:51:44;16.42;;;8.20;;
71395;SDS011;59888;55.814;37.132;2023-08-31T03:54:11;16.65;;;9.07;;
71395;SDS011;59888;55.814;37.132;2023-08-31T03:56:39;11.68;;;7.60;;
71395;SDS011;59888;55.814;37.132;2023-08-31T03:59:05;15.57;;;8.85;;
71395;SDS011;59888;55.814;37.132;2023-08-31T04:01:31;14.80;;;8.40;;
71395;SDS011;59888;55.814;37.132;2023-08-31T04:03:57;16.75;;;9.13;;
71395;SDS011;59888;55.814;37.132;2023-08-31T04:06:23;17.23;;;9.20;;
71395;SDS011;59888;55.814;37.132;2023-08-31T04:08:49;20.98;;;9.18;;
71395;SDS011;59888;55.814;37.132;2023-08-31T04:11:16;14.05;;;7.35;;
71395;SDS011;59888;55.814;37.132;2023-08-31T04:13:42;17.33;;;8.85;;
71395;SDS011;59888;55.814;37.132;2023-08-31T04:16:08;14.90;;;9.45;;
71395;SDS011;59888;55.814;37.132;2023-08-31T04:18:34;13.30;;;8.27;;
71395;SDS011;59888;55.814;37.132;2023-08-31T04:21:00;14.75;;;7.72;;
71395;SDS011;59888;55.814;37.132;2023-08-31T04:23:29;14.75;;;8.25;;
71395;SDS011;59888;55.814;37.132;2023-08-31T04:25:55;15.30;;;9.10;;
71395;SDS011;59888;55.814;37.132;2023-08-31T04:28:23;20.02;;;9.65;;
71395;SDS011;59888;55.814;37.132;2023-08-31T04:30:49;21.05;;;9.40;;
71395;SDS011;59888;55.814;37.132;2023-08-31T04:33:15;18.98;;;9.85;;
71395;SDS011;59888;55.814;37.132;2023-08-31T04:35:41;13.95;;;8.90;;
71395;SDS011;59888;55.814;37.132;2023-08-31T04:38:07;19.58;;;9.68;;
71395;SDS011;59888;55.814;37.132;2023-08-31T04:40:33;17.92;;;9.20;;
71395;SDS011;59888;55.814;37.132;2023-08-31T04:42:59;16.00;;;9.27;;
71395;SDS011;59888;55.814;37.132;2023-08-31T04:45:25;17.42;;;9.27;;
71395;SDS011;59888;55.814;37.132;2023-08-31T04:47:51;14.93;;;7.80;;
71395;SDS011;59888;55.814;37.132;2023-08-31T04:50:17;12.27;;;8.00;;
71395;SDS011;59888;55.814;37.132;2023-08-31T04:52:44;15.38;;;8.18;;
71395;SDS011;59888;55.814;37.132;2023-08-31T04:55:12;12.80;;;8.45;;
71395;SDS011;59888;55.814;37.132;2023-08-31T04:57:39;15.57;;;8.52;;
71395;SDS011;59888;55.814;37.132;2023-08-31T05:00:05;14.77;;;8.27;;
71395;SDS011;59888;55.814;37.132;2023-08-31T05:02:34;14.63;;;8.15;;
71395;SDS011;59888;55.814;37.132;2023-08-31T05:05:01;16.13;;;9.57;;
71395;SDS011;59888;55.814;37.132;2023-08-31T05:07:29;16.75;;;9.43;;
71395;SDS011;59888;55.814;37.132;2023-08-31T05:09:55;13.10;;;7.80;;
71395;SDS011;59888;55.814;37.132;2023-08-31T05:12:22;16.17;;;7.35;;
71395;SDS011;59888;55.814;37.132;2023-08-31T05:14:48;18.20;;;8.57;;
71395;SDS011;59888;55.814;37.132;2023-08-31T05:17:14;13.90;;;7.57;;
71395;SDS011;59888;55.814;37.132;2023-08-31T05:19:40;14.98;;;8.15;;
71395;SDS011;59888;55.814;37.132;2023-08-31T05:22:05;13.63;;;7.30;;
71395;SDS011;59888;55.814;37.132;2023-08-31T05:24:31;10.85;;;6.72;;
71395;SDS011;59888;55.814;37.132;2023-08-31T05:26:57;12.57;;;6.53;;
71395;SDS011;59888;55.814;37.132;2023-08-31T05:29:25;10.73;;;6.93;;
71395;SDS011;59888;55.814;37.132;2023-08-31T05:31:54;12.77;;;6.72;;
71395;SDS011;59888;55.814;37.132;2023-08-31T05:34:24;11.75;;;6.63;;
71395;SDS011;59888;55.814;37.132;2023-08-31T05:36:50;13.00;;;6.95;;
71395;SDS011;59888;55.814;37.132;2023-08-31T05:39:16;12.48;;;6.72;;
71395;SDS011;59888;55.814;37.132;2023-08-31T05:41:43;12.98;;;6.93;;
71395;SDS011;59888;55.814;37.132;2023-08-31T05:44:09;14.30;;;7.30;;
71395;SDS011;59888;55.814;37.132;2023-08-31T05:46:36;10.40;;;5.88;;
71395;SDS011;59888;55.814;37.132;2023-08-31T05:49:15;13.13;;;7.07;;
71395;SDS011;59888;55.814;37.132;2023-08-31T05:51:40;9.38;;;6.35;;
71395;SDS011;59888;55.814;37.132;2023-08-31T05:54:07;9.77;;;6.25;;
71395;SDS011;59888;55.814;37.132;2023-08-31T05:56:40;10.95;;;6.53;;
71395;SDS011;59888;55.814;37.132;2023-08-31T05:59:06;10.80;;;5.88;;
71395;SDS011;59888;55.814;37.132;2023-08-31T06:01:35;11.13;;;6.60;;
71395;SDS011;59888;55.814;37.132;2023-08-31T06:04:03;15.82;;;7.10;;
71395;SDS011;59888;55.814;37.132;2023-08-31T06:06:30;9.75;;;5.53;;
71395;SDS011;59888;55.814;37.132;2023-08-31T06:08:58;11.18;;;6.20;;
71395;SDS011;59888;55.814;37.132;2023-08-31T06:11:24;14.93;;;5.93;;
71395;SDS011;59888;55.814;37.132;2023-08-31T06:13:50;12.65;;;5.82;;
71395;SDS011;59888;55.814;37.132;2023-08-31T06:16:16;10.32;;;6.15;;
71395;SDS011;59888;55.814;37.132;2023-08-31T06:18:42;16.98;;;6.95;;
71395;SDS011;59888;55.814;37.132;2023-08-31T06:21:08;11.23;;;6.43;;
71395;SDS011;59888;55.814;37.132;2023-08-31T06:23:35;12.93;;;6.50;;
71395;SDS011;59888;55.814;37.132;2023-08-31T06:26:01;14.68;;;6.85;;
71395;SDS011;59888;55.814;37.132;2023-08-31T06:28:28;11.48;;;7.15;;
71395;SDS011;59888;55.814;37.132;2023-08-31T06:30:54;11.10;;;6.85;;
71395;SDS011;59888;55.814;37.132;2023-08-31T06:33:20;15.98;;;6.80;;
71395;SDS011;59888;55.814;37.132;2023-08-31T06:35:52;9.95;;;5.93;;
71395;SDS011;59888;55.814;37.132;2023-08-31T06:38:18;10.73;;;6.22;;
71395;SDS011;59888;55.814;37.132;2023-08-31T06:40:47;10.15;;;5.70;;
71395;SDS011;59888;55.814;37.132;2023-08-31T06:43:13;13.98;;;6.82;;
71395;SDS011;59888;55.814;37.132;2023-08-31T06:45:39;10.32;;;5.88;;
71395;SDS011;59888;55.814;37.132;2023-08-31T06:48:05;11.35;;;6.53;;
71395;SDS011;59888;55.814;37.132;2023-08-31T06:50:33;11.07;;;6.70;;
71395;SDS011;59888;55.814;37.132;2023-08-31T06:53:00;10.55;;;6.10;;
71395;SDS011;59888;55.814;37.132;2023-08-31T06:55:27;10.10;;;6.40;;
71395;SDS011;59888;55.814;37.132;2023-08-31T06:57:52;11.25;;;5.70;;
71395;SDS011;59888;55.814;37.132;2023-08-31T07:00:18;10.25;;;6.32;;
71395;SDS011;59888;55.814;37.132;2023-08-31T07:02:45;10.23;;;5.75;;
71395;SDS011;59888;55.814;37.132;2023-08-31T07:05:11;10.48;;;5.72;;
71395;SDS011;59888;55.814;37.132;2023-08-31T07:07:37;14.70;;;6.35;;
71395;SDS011;59888;55.814;37.132;2023-08-31T07:10:03;9.93;;;6.53;;
71395;SDS011;59888;55.814;37.132;2023-08-31T07:12:33;14.60;;;8.00;;
71395;SDS011;59888;55.814;37.132;2023-08-31T07:14:59;11.90;;;6.85;;
71395;SDS011;59888;55.814;37.132;2023-08-31T07:17:25;9.68;;;6.18;;
71395;SDS011;59888;55.814;37.132;2023-08-31T07:19:52;11.95;;;6.30;;
71395;SDS011;59888;55.814;37.132;2023-08-31T07:22:18;9.02;;;6.00;;
71395;SDS011;59888;55.814;37.132;2023-08-31T07:24:45;10.23;;;5.97;;
71395;SDS011;59888;55.814;37.132;2023-08-31T07:27:14;11.23;;;5.82;;
71395;SDS011;59888;55.814;37.132;2023-08-31T07:29:42;10.25;;;5.43;;
71395;SDS011;59888;55.814;37.132;2023-08-31T07:32:09;9.77;;;5.72;;
71395;SDS011;59888;55.814;37.132;2023-08-31T07:34:35;12.80;;;5.72;;
71395;SDS011;59888;55.814;37.132;2023-08-31T07:37:02;11.95;;;5.65;;
71395;SDS011;59888;55.814;37.132;2023-08-31T07:39:34;9.43;;;5.40;;
71395;SDS011;59888;55.814;37.132;2023-08-31T07:42:00;9.45;;;5.90;;
71395;SDS011;59888;55.814;37.132;2023-08-31T07:44:26;13.05;;;5.75;;
71395;SDS011;59888;55.814;37.132;2023-08-31T07:46:52;8.43;;;5.10;;
71395;SDS011;59888;55.814;37.132;2023-08-31T07:49:18;10.98;;;5.95;;
71395;SDS011;59888;55.814;37.132;2023-08-31T07:51:44;13.57;;;5.63;;
71395;SDS011;59888;55.814;37.132;2023-08-31T07:54:30;11.38;;;5.88;;
71395;SDS011;59888;55.814;37.132;2023-08-31T07:56:56;10.63;;;5.63;;
71395;SDS011;59888;55.814;37.132;2023-08-31T07:59:22;10.52;;;5.10;;
71395;SDS011;59888;55.814;37.132;2023-08-31T08:01:48;11.90;;;4.95;;
71395;SDS011;59888;55.814;37.132;2023-08-31T08:04:17;8.57;;;5.05;;
71395;SDS011;59888;55.814;37.132;2023-08-31T08:06:45;8.45;;;4.78;;
71395;SDS011;59888;55.814;37.132;2023-08-31T08:09:10;8.95;;;4.93;;
71395;SDS011;59888;55.814;37.132;2023-08-31T08:11:37;9.40;;;5.55;;
71395;SDS011;59888;55.814;37.132;2023-08-31T08:14:03;8.82;;;5.05;;
71395;SDS011;59888;55.814;37.132;2023-08-31T08:16:29;10.75;;;4.85;;
71395;SDS011;59888;55.814;37.132;2023-08-31T08:18:55;8.55;;;4.47;;
71395;SDS011;59888;55.814;37.132;2023-08-31T08:21:21;9.35;;;7.30;;
71395;SDS011;59888;55.814;37.132;2023-08-31T08:23:47;10.00;;;4.80;;
71395;SDS011;59888;55.814;37.132;2023-08-31T08:26:16;11.85;;;4.47;;
71395;SDS011;59888;55.814;37.132;2023-08-31T08:28:42;7.85;;;4.45;;
71395;SDS011;59888;55.814;37.132;2023-08-31T08:31:08;9.10;;;4.35;;
71395;SDS011;59888;55.814;37.132;2023-08-31T08:33:34;8.68;;;4.43;;
71395;SDS011;59888;55.814;37.132;2023-08-31T08:36:00;7.93;;;4.22;;
71395;SDS011;59888;55.814;37.132;2023-08-31T08:38:26;7.82;;;4.18;;
71395;SDS011;59888;55.814;37.132;2023-08-31T08:40:52;6.07;;;4.10;;
71395;SDS011;59888;55.814;37.132;2023-08-31T08:43:20;10.35;;;4.35;;
71395;SDS011;59888;55.814;37.132;2023-08-31T08:45:52;6.65;;;4.32;;
71395;SDS011;59888;55.814;37.132;2023-08-31T08:48:20;7.43;;;4.28;;
71395;SDS011;59888;55.814;37.132;2023-08-31T08:50:46;7.97;;;4.18;;
71395;SDS011;59888;55.814;37.132;2023-08-31T08:53:13;7.72;;;4.18;;
71395;SDS011;59888;55.814;37.132;2023-08-31T08:55:40;8.05;;;4.32;;
71395;SDS011;59888;55.814;37.132;2023-08-31T08:58:26;8.10;;;4.53;;
71395;SDS011;59888;55.814;37.132;2023-08-31T09:00:54;9.07;;;4.50;;
71395;SDS011;59888;55.814;37.132;2023-08-31T09:03:23;9.27;;;3.97;;
71395;SDS011;59888;55.814;37.132;2023-08-31T09:05:50;10.10;;;3.60;;
71395;SDS011;59888;55.814;37.132;2023-08-31T09:08:18;8.18;;;3.83;;
71395;SDS011;59888;55.814;37.132;2023-08-31T09:10:52;9.68;;;3.78;;
71395;SDS011;59888;55.814;37.132;2023-08-31T09:13:20;10.10;;;4.15;;
71395;SDS011;59888;55.814;37.132;2023-08-31T09:15:51;7.57;;;4.15;;
71395;SDS011;59888;55.814;37.132;2023-08-31T09:18:38;6.43;;;4.05;;
71395;SDS011;59888;55.814;37.132;2023-08-31T09:21:03;6.88;;;3.83;;
71395;SDS011;59888;55.814;37.132;2023-08-31T09:23:29;8.82;;;3.92;;
71395;SDS011;59888;55.814;37.132;2023-08-31T09:25:55;7.50;;;3.90;;
71395;SDS011;59888;55.814;37.132;2023-08-31T09:28:22;7.85;;;3.90;;
71395;SDS011;59888;55.814;37.132;2023-08-31T09:31:03;5.72;;;3.45;;
71395;SDS011;59888;55.814;37.132;2023-08-31T09:33:32;9.93;;;4.15;;
71395;SDS011;59888;55.814;37.132;2023-08-31T09:35:59;7.30;;;3.95;;
71395;SDS011;59888;55.814;37.132;2023-08-31T09:38:27;5.38;;;3.80;;
71395;SDS011;59888;55.814;37.132;2023-08-31T09:41:05;8.57;;;4.00;;
71395;SDS011;59888;55.814;37.132;2023-08-31T09:43:33;6.72;;;4.05;;
71395;SDS011;59888;55.814;37.132;2023-08-31T09:45:59;6.88;;;3.63;;
71395;SDS011;59888;55.814;37.132;2023-08-31T09:48:28;9.05;;;3.72;;
71395;SDS011;59888;55.814;37.132;2023-08-31T09:50:55;8.63;;;3.92;;
71395;SDS011;59888;55.814;37.132;2023-08-31T09:53:25;6.28;;;4.05;;
71395;SDS011;59888;55.814;37.132;2023-08-31T09:55:54;9.57;;;4.10;;
71395;SDS011;59888;55.814;37.132;2023-08-31T09:58:22;8.50;;;4.05;;
71395;SDS011;59888;55.814;37.132;2023-08-31T10:00:49;9.85;;;4.10;;
71395;SDS011;59888;55.814;37.132;2023-08-31T10:03:17;8.18;;;4.03;;
71395;SDS011;59888;55.814;37.132;2023-08-31T10:05:44;7.25;;;3.88;;
71395;SDS011;59888;55.814;37.132;2023-08-31T10:08:11;7.40;;;3.83;;
71395;SDS011;59888;55.814;37.132;2023-08-31T10:10:39;6.13;;;4.00;;
71395;SDS011;59888;55.814;37.132;2023-08-31T10:13:05;8.13;;;3.67;;
71395;SDS011;59888;55.814;37.132;2023-08-31T10:15:32;6.43;;;3.58;;
71395;SDS011;59888;55.814;37.132;2023-08-31T10:18:02;9.40;;;4.03;;
71395;SDS011;59888;55.814;37.132;2023-08-31T10:20:30;12.20;;;4.35;;
71395;SDS011;59888;55.814;37.132;2023-08-31T10:23:03;6.72;;;3.90;;
71395;SDS011;59888;55.814;37.132;2023-08-31T10:28:25;7.97;;;3.95;;
71395;SDS011;59888;55.814;37.132;2023-08-31T10:31:28;5.97;;;3.40;;
71395;SDS011;59888;55.814;37.132;2023-08-31T10:39:00;5.57;;;3.67;;
71395;SDS011;59888;55.814;37.132;2023-08-31T10:41:36;5.93;;;3.70;;
71395;SDS011;59888;55.814;37.132;2023-08-31T10:44:18;7.13;;;3.95;;
71395;SDS011;59888;55.814;37.132;2023-08-31T10:46:49;6.38;;;3.70;;
71395;SDS011;59888;55.814;37.132;2023-08-31T10:49:18;7.72;;;3.88;;
71395;SDS011;59888;55.814;37.132;2023-08-31T10:51:46;10.85;;;4.32;;
71395;SDS011;59888;55.814;37.132;2023-08-31T10:54:24;6.63;;;4.00;;
71395;SDS011;59888;55.814;37.132;2023-08-31T10:56:52;6.70;;;3.80;;
71395;SDS011;59888;55.814;37.132;2023-08-31T10:59:45;8.00;;;4.10;;
71395;SDS011;59888;55.814;37.132;2023-08-31T11:05:12;9.50;;;4.38;;
71395;SDS011;59888;55.814;37.132;2023-08-31T11:07:44;8.27;;;3.65;;
71395;SDS011;59888;55.814;37.132;2023-08-31T11:10:14;8.60;;;4.10;;
71395;SDS011;59888;55.814;37.132;2023-08-31T11:12:45;5.82;;;4.03;;
71395;SDS011;59888;55.814;37.132;2023-08-31T11:15:20;13.65;;;4.80;;
71395;SDS011;59888;55.814;37.132;2023-08-31T11:17:50;8.48;;;4.18;;
71395;SDS011;59888;55.814;37.132;2023-08-31T11:20:20;11.90;;;4.10;;
71395;SDS011;59888;55.814;37.132;2023-08-31T11:22:48;6.90;;;3.75;;
71395;SDS011;59888;55.814;37.132;2023-08-31T11:25:15;10.75;;;4.65;;
71395;SDS011;59888;55.814;37.132;2023-08-31T11:27:52;8.00;;;4.07;;
71395;SDS011;59888;55.814;37.132;2023-08-31T11:30:22;9.32;;;4.13;;
71395;SDS011;59888;55.814;37.132;2023-08-31T11:32:51;6.65;;;3.70;;
71395;SDS011;59888;55.814;37.132;2023-08-31T11:35:19;8.70;;;4.40;;
71395;SDS011;59888;55.814;37.132;2023-08-31T11:37:48;11.48;;;3.88;;
71395;SDS011;59888;55.814;37.132;2023-08-31T11:40:17;11.20;;;4.15;;
71395;SDS011;59888;55.814;37.132;2023-08-31T11:42:45;10.07;;;4.30;;
71395;SDS011;59888;55.814;37.132;2023-08-31T11:45:11;8.45;;;3.92;;
71395;SDS011;59888;55.814;37.132;2023-08-31T11:47:39;9.55;;;4.10;;
71395;SDS011;59888;55.814;37.132;2023-08-31T11:50:06;7.47;;;4.10;;
71395;SDS011;59888;55.814;37.132;2023-08-31T11:52:33;7.72;;;4.13;;
71395;SDS011;59888;55.814;37.132;2023-08-31T11:55:00;6.93;;;4.07;;
71395;SDS011;59888;55.814;37.132;2023-08-31T11:57:26;7.03;;;4.10;;
71395;SDS011;59888;55.814;37.132;2023-08-31T11:59:54;8.25;;;3.80;;
71395;SDS011;59888;55.814;37.132;2023-08-31T12:02:24;6.90;;;3.90;;
71395;SDS011;59888;55.814;37.132;2023-08-31T12:04:50;9.20;;;4.32;;
71395;SDS011;59888;55.814;37.132;2023-08-31T12:07:17;6.57;;;4.00;;
71395;SDS011;59888;55.814;37.132;2023-08-31T12:09:46;6.47;;;4.28;;
71395;SDS011;59888;55.814;37.132;2023-08-31T12:12:20;9.48;;;4.13;;
71395;SDS011;59888;55.814;37.132;2023-08-31T12:14:47;7.80;;;3.80;;
71395;SDS011;59888;55.814;37.132;2023-08-31T12:17:13;11.45;;;4.50;;
71395;SDS011;59888;55.814;37.132;2023-08-31T12:19:44;8.75;;;4.20;;
71395;SDS011;59888;55.814;37.132;2023-08-31T12:22:11;5.85;;;3.97;;
71395;SDS011;59888;55.814;37.132;2023-08-31T12:24:40;7.53;;;3.88;;
71395;SDS011;59888;55.814;37.132;2023-08-31T12:27:08;7.18;;;4.30;;
71395;SDS011;59888;55.814;37.132;2023-08-31T12:29:35;6.22;;;4.13;;
71395;SDS011;59888;55.814;37.132;2023-08-31T12:32:01;7.05;;;3.95;;
71395;SDS011;59888;55.814;37.132;2023-08-31T12:34:29;6.90;;;4.25;;
71395;SDS011;59888;55.814;37.132;2023-08-31T12:36:58;6.88;;;3.80;;
71395;SDS011;59888;55.814;37.132;2023-08-31T12:39:28;6.18;;;4.15;;
71395;SDS011;59888;55.814;37.132;2023-08-31T12:41:54;8.27;;;4.05;;
71395;SDS011;59888;55.814;37.132;2023-08-31T12:44:20;6.28;;;3.65;;
71395;SDS011;59888;55.814;37.132;2023-08-31T12:46:46;8.93;;;3.70;;
71395;SDS011;59888;55.814;37.132;2023-08-31T12:49:12;7.70;;;3.75;;
71395;SDS011;59888;55.814;37.132;2023-08-31T12:51:38;8.38;;;3.90;;
71395;SDS011;59888;55.814;37.132;2023-08-31T12:54:04;7.55;;;3.83;;
71395;SDS011;59888;55.814;37.132;2023-08-31T12:56:30;10.10;;;3.80;;
71395;SDS011;59888;55.814;37.132;2023-08-31T12:58:56;4.68;;;3.03;;
71395;SDS011;59888;55.814;37.132;2023-08-31T13:01:22;5.97;;;3.63;;
71395;SDS011;59888;55.814;37.132;2023-08-31T13:03:49;5.07;;;3.60;;
71395;SDS011;59888;55.814;37.132;2023-08-31T13:06:15;7.15;;;3.95;;
71395;SDS011;59888;55.814;37.132;2023-08-31T13:08:44;4.97;;;3.55;;
71395;SDS011;59888;55.814;37.132;2023-08-31T13:11:11;4.55;;;3.47;;
71395;SDS011;59888;55.814;37.132;2023-08-31T13:13:40;6.68;;;4.05;;
71395;SDS011;59888;55.814;37.132;2023-08-31T13:16:06;7.43;;;3.25;;
71395;SDS011;59888;55.814;37.132;2023-08-31T13:18:32;7.93;;;3.75;;
71395;SDS011;59888;55.814;37.132;2023-08-31T13:21:00;8.35;;;3.35;;
71395;SDS011;59888;55.814;37.132;2023-08-31T13:23:26;6.18;;;3.25;;
71395;SDS011;59888;55.814;37.132;2023-08-31T13:25:52;6.15;;;3.20;;
71395;SDS011;59888;55.814;37.132;2023-08-31T13:28:19;7.57;;;3.80;;
71395;SDS011;59888;55.814;37.132;2023-08-31T13:30:45;5.65;;;3.90;;
71395;SDS011;59888;55.814;37.132;2023-08-31T13:33:11;7.72;;;3.50;;
71395;SDS011;59888;55.814;37.132;2023-08-31T13:35:37;7.80;;;3.60;;
71395;SDS011;59888;55.814;37.132;2023-08-31T13:38:03;8.77;;;4.15;;
71395;SDS011;59888;55.814;37.132;2023-08-31T13:40:30;8.70;;;4.32;;
71395;SDS011;59888;55.814;37.132;2023-08-31T13:42:59;5.80;;;3.70;;
71395;SDS011;59888;55.814;37.132;2023-08-31T13:45:31;7.75;;;3.70;;
71395;SDS011;59888;55.814;37.132;2023-08-31T13:47:58;6.13;;;3.88;;
71395;SDS011;59888;55.814;37.132;2023-08-31T13:50:26;5.35;;;3.70;;
71395;SDS011;59888;55.814;37.132;2023-08-31T13:52:52;6.70;;;3.40;;
71395;SDS011;59888;55.814;37.132;2023-08-31T13:55:19;5.50;;;3.75;;
71395;SDS011;59888;55.814;37.132;2023-08-31T13:57:45;6.43;;;3.38;;
71395;SDS011;59888;55.814;37.132;2023-08-31T14:00:12;7.50;;;3.75;;
71395;SDS011;59888;55.814;37.132;2023-08-31T14:02:39;7.38;;;3.60;;
71395;SDS011;59888;55.814;37.132;2023-08-31T14:05:06;5.40;;;3.60;;
71395;SDS011;59888;55.814;37.132;2023-08-31T14:07:34;6.45;;;3.55;;
71395;SDS011;59888;55.814;37.132;2023-08-31T14:10:01;7.70;;;3.78;;
71395;SDS011;59888;55.814;37.132;2023-08-31T14:12:31;8.18;;;3.83;;
71395;SDS011;59888;55.814;37.132;2023-08-31T14:14:57;9.82;;;3.90;;
71395;SDS011;59888;55.814;37.132;2023-08-31T14:17:23;7.15;;;3.70;;
71395;SDS011;59888;55.814;37.132;2023-08-31T14:19:49;5.72;;;3.35;;
71395;SDS011;59888;55.814;37.132;2023-08-31T14:22:15;8.38;;;3.63;;
71395;SDS011;59888;55.814;37.132;2023-08-31T14:24:42;7.57;;;3.88;;
71395;SDS011;59888;55.814;37.132;2023-08-31T14:27:08;7.68;;;3.58;;
71395;SDS011;59888;55.814;37.132;2023-08-31T14:29:34;7.20;;;4.10;;
71395;SDS011;59888;55.814;37.132;2023-08-31T14:32:02;7.85;;;3.85;;
71395;SDS011;59888;55.814;37.132;2023-08-31T14:34:28;9.05;;;3.70;;
71395;SDS011;59888;55.814;37.132;2023-08-31T14:36:56;7.45;;;3.88;;
71395;SDS011;59888;55.814;37.132;2023-08-31T14:39:23;6.95;;;4.10;;
71395;SDS011;59888;55.814;37.132;2023-08-31T14:41:58;6.07;;;3.80;;
71395;SDS011;59888;55.814;37.132;2023-08-31T14:44:24;8.10;;;3.80;;
71395;SDS011;59888;55.814;37.132;2023-08-31T14:46:51;8.80;;;3.97;;